createdAt,value
2023-04-23T00:01:57.570Z,3.60
2023-04-23T00:04:26.347Z,3.30
2023-04-23T00:06:54.625Z,3.60
2023-04-23T00:09:22.156Z,3.30
2023-04-23T00:11:50.049Z,3.30
2023-04-23T00:14:17.712Z,3.30
2023-04-23T00:16:45.350Z,3.40
2023-04-23T00:19:12.937Z,3.30
2023-04-23T00:21:40.253Z,3.30
2023-04-23T00:24:08.226Z,3.90
2023-04-23T00:26:35.848Z,3.70
2023-04-23T00:29:03.579Z,3.50
2023-04-23T00:31:31.443Z,3.30
2023-04-23T00:33:58.534Z,3.40
2023-04-23T00:36:26.466Z,3.80
2023-04-23T00:38:54.159Z,4.00
2023-04-23T00:41:21.779Z,3.60
2023-04-23T00:43:49.175Z,3.60
2023-04-23T00:46:16.980Z,3.80
2023-04-23T00:48:44.763Z,3.70
2023-04-23T00:51:12.428Z,3.40
2023-04-23T00:53:40.390Z,3.60
2023-04-23T00:56:08.705Z,3.70
2023-04-23T00:58:36.700Z,3.40
2023-04-23T01:01:05.137Z,3.60
2023-04-23T01:03:34.744Z,3.90
2023-04-23T01:06:02.865Z,3.50
2023-04-23T01:08:30.758Z,3.70
2023-04-23T01:10:58.471Z,3.60
2023-04-23T01:13:29.845Z,4.00
2023-04-23T01:15:57.830Z,4.00
2023-04-23T01:18:25.281Z,3.50
2023-04-23T01:20:53.605Z,4.40
2023-04-23T01:23:21.938Z,3.80
2023-04-23T01:25:49.489Z,4.10
2023-04-23T01:28:16.989Z,4.10
2023-04-23T01:30:44.456Z,3.90
2023-04-23T01:33:12.449Z,4.10
2023-04-23T01:35:40.859Z,4.00
2023-04-23T01:38:11.114Z,3.60
2023-04-23T01:40:39.213Z,3.80
2023-04-23T01:43:07.672Z,3.70
2023-04-23T01:45:35.664Z,3.90
2023-04-23T01:48:03.788Z,3.90
2023-04-23T01:50:31.290Z,4.00
2023-04-23T01:52:58.822Z,3.90
2023-04-23T01:55:26.854Z,3.50
2023-04-23T01:57:54.016Z,4.20
2023-04-23T02:00:21.861Z,3.90
2023-04-23T02:02:50.674Z,3.40
2023-04-23T02:05:18.954Z,4.30
2023-04-23T02:07:47.383Z,3.80
2023-04-23T02:10:15.329Z,4.10
2023-04-23T02:12:42.907Z,4.00
2023-04-23T02:15:10.367Z,3.80
2023-04-23T02:17:40.169Z,4.10
2023-04-23T02:20:12.083Z,3.80
2023-04-23T02:22:40.378Z,3.90
2023-04-23T02:25:08.480Z,4.20
2023-04-23T02:27:36.350Z,4.30
2023-04-23T02:30:03.906Z,3.70
2023-04-23T02:32:31.524Z,3.90
2023-04-23T02:34:59.894Z,3.90
2023-04-23T02:37:27.621Z,3.90
2023-04-23T02:39:55.331Z,4.20
2023-04-23T02:42:22.849Z,4.30
2023-04-23T02:44:50.804Z,4.00
2023-04-23T02:47:18.465Z,4.30
2023-04-23T02:49:45.968Z,4.30
2023-04-23T02:52:13.889Z,3.80
2023-04-23T02:54:41.737Z,3.90
2023-04-23T02:57:09.652Z,3.40
2023-04-23T02:59:37.974Z,4.20
2023-04-23T03:02:06.586Z,4.00
2023-04-23T03:04:35.924Z,5.00
2023-04-23T03:07:04.059Z,4.50
2023-04-23T03:09:33.400Z,4.60
2023-04-23T03:12:00.749Z,4.30
2023-04-23T03:14:28.712Z,4.40
2023-04-23T03:16:57.203Z,4.40
2023-04-23T03:25:09.083Z,4.90
2023-04-23T03:27:39.027Z,4.40
2023-04-23T03:30:09.368Z,4.50
2023-04-23T03:32:37.658Z,4.60
2023-04-23T03:35:06.327Z,4.50
2023-04-23T03:37:34.485Z,4.20
2023-04-23T03:40:07.981Z,4.50
2023-04-23T03:42:37.681Z,4.90
2023-04-23T03:45:06.902Z,4.50
2023-04-23T03:47:37.149Z,5.00
2023-04-23T03:50:05.406Z,4.50
2023-04-23T03:52:33.567Z,4.30
2023-04-23T03:55:02.124Z,4.20
2023-04-23T03:57:39.831Z,4.50
2023-04-23T04:00:19.922Z,4.30
2023-04-23T04:02:47.324Z,3.70
2023-04-23T04:05:15.281Z,3.80
2023-04-23T04:07:43.508Z,4.50
2023-04-23T04:10:11.525Z,4.30
2023-04-23T04:12:39.936Z,3.80
2023-04-23T04:15:10.441Z,4.20
2023-04-23T04:17:38.598Z,4.40
2023-04-23T04:20:08.819Z,3.70
2023-04-23T04:22:36.415Z,4.20
2023-04-23T04:25:05.436Z,4.00
2023-04-23T04:27:37.695Z,4.20
2023-04-23T04:30:06.389Z,3.60
2023-04-23T04:32:34.575Z,3.80
2023-04-23T04:35:02.906Z,4.00
2023-04-23T04:37:30.624Z,4.70
2023-04-23T04:39:57.763Z,4.50
2023-04-23T04:42:25.603Z,3.60
2023-04-23T04:44:53.916Z,4.20
2023-04-23T04:47:22.117Z,3.90
2023-04-23T04:49:49.990Z,4.30
2023-04-23T04:52:17.739Z,4.10
2023-04-23T04:54:45.864Z,3.80
2023-04-23T04:57:13.957Z,4.00
2023-04-23T04:59:42.170Z,3.80
2023-04-23T05:02:10.528Z,4.50
2023-04-23T05:04:38.619Z,4.10
2023-04-23T05:07:06.712Z,4.20
2023-04-23T05:09:34.730Z,4.20
2023-04-23T05:12:02.216Z,3.60
2023-04-23T05:14:30.882Z,4.40
2023-04-23T05:16:58.974Z,3.80
2023-04-23T05:19:26.600Z,3.90
2023-04-23T05:21:54.505Z,3.90
2023-04-23T05:24:22.022Z,4.40
2023-04-23T05:26:50.105Z,3.70
2023-04-23T05:29:19.519Z,3.70
2023-04-23T05:31:47.017Z,3.90
2023-04-23T05:34:14.922Z,3.80
2023-04-23T05:36:42.596Z,3.70
2023-04-23T05:39:10.491Z,3.40
2023-04-23T05:41:38.484Z,4.00
2023-04-23T05:44:05.996Z,4.00
2023-04-23T05:46:33.581Z,5.40
2023-04-23T05:49:01.040Z,5.40
2023-04-23T05:51:28.544Z,4.10
2023-04-23T05:53:55.705Z,3.70
2023-04-23T05:56:23.611Z,3.40
2023-04-23T05:58:51.017Z,4.00
2023-04-23T06:01:19.086Z,3.20
2023-04-23T06:03:48.031Z,3.50
2023-04-23T06:06:16.236Z,3.40
2023-04-23T06:08:44.747Z,3.60
2023-04-23T06:11:13.866Z,3.50
2023-04-23T06:13:44.056Z,3.60
2023-04-23T06:16:12.188Z,3.70
2023-04-23T06:18:40.268Z,3.20
2023-04-23T06:21:07.922Z,3.50
2023-04-23T06:23:36.873Z,3.50
2023-04-23T06:26:05.782Z,3.40
2023-04-23T06:28:33.729Z,4.30
2023-04-23T06:31:22.254Z,3.50
2023-04-23T06:33:51.163Z,3.40
2023-04-23T06:36:19.387Z,3.80
2023-04-23T06:38:47.608Z,3.10
2023-04-23T06:41:15.488Z,3.30
2023-04-23T06:43:43.191Z,3.00
2023-04-23T06:46:31.975Z,3.30
2023-04-23T06:48:59.736Z,3.30
2023-04-23T06:51:27.965Z,3.00
2023-04-23T06:53:56.338Z,3.30
2023-04-23T06:56:24.124Z,3.50
2023-04-23T06:58:51.490Z,3.10
2023-04-23T07:01:21.453Z,3.00
2023-04-23T07:03:51.999Z,3.10
2023-04-23T07:06:19.863Z,3.20
2023-04-23T07:08:47.696Z,2.80
2023-04-23T07:11:15.403Z,2.90
2023-04-23T07:13:43.781Z,3.30
2023-04-23T07:16:12.080Z,2.80
2023-04-23T07:18:40.345Z,3.10
2023-04-23T07:21:08.827Z,3.00
2023-04-23T07:23:36.896Z,3.10
2023-04-23T07:26:05.092Z,3.30
2023-04-23T07:28:32.946Z,3.10
2023-04-23T07:31:00.839Z,2.90
2023-04-23T07:33:29.381Z,3.00
2023-04-23T07:35:57.830Z,2.90
2023-04-23T07:38:26.200Z,3.00
2023-04-23T07:40:53.738Z,2.30
2023-04-23T07:43:22.236Z,2.80
2023-04-23T07:45:50.861Z,2.60
2023-04-23T07:48:18.736Z,2.50
2023-04-23T07:50:46.969Z,3.00
2023-04-23T07:53:15.234Z,2.60
2023-04-23T07:55:43.165Z,2.60
2023-04-23T07:58:11.082Z,2.40
2023-04-23T08:00:39.884Z,2.60
2023-04-23T08:03:07.988Z,3.40
2023-04-23T08:05:38.719Z,2.50
2023-04-23T08:08:06.539Z,2.60
2023-04-23T08:10:34.473Z,2.40
2023-04-23T08:13:03.203Z,2.30
2023-04-23T08:15:31.649Z,2.60
2023-04-23T08:17:59.807Z,2.10
2023-04-23T08:20:27.711Z,2.40
2023-04-23T08:22:56.681Z,2.60
2023-04-23T08:25:24.414Z,2.50
2023-04-23T08:27:52.681Z,2.20
2023-04-23T08:30:20.255Z,2.50
2023-04-23T08:32:51.104Z,2.40
2023-04-23T08:35:19.651Z,2.10
2023-04-23T08:37:47.100Z,2.50
2023-04-23T08:40:15.175Z,2.30
2023-04-23T08:43:11.690Z,2.20
2023-04-23T08:45:41.727Z,2.00
2023-04-23T08:48:09.687Z,2.00
2023-04-23T08:50:38.465Z,2.20
2023-04-23T08:53:07.492Z,2.20
2023-04-23T08:55:36.725Z,2.20
2023-04-23T08:58:06.878Z,2.10
2023-04-23T09:00:35.746Z,2.20
2023-04-23T09:03:04.783Z,2.30
2023-04-23T09:05:32.646Z,2.00
2023-04-23T09:08:00.126Z,2.10
2023-04-23T09:10:27.560Z,3.00
2023-04-23T09:12:55.503Z,2.50
2023-04-23T09:15:23.297Z,2.40
2023-04-23T09:17:53.014Z,2.20
2023-04-23T09:20:21.045Z,2.00
2023-04-23T09:22:49.655Z,2.00
2023-04-23T09:25:22.125Z,2.00
2023-04-23T09:27:50.956Z,2.30
2023-04-23T09:30:19.821Z,2.00
2023-04-23T09:32:48.150Z,2.00
2023-04-23T09:35:17.718Z,2.10
2023-04-23T09:37:49.517Z,2.00
2023-04-23T09:40:20.368Z,2.00
2023-04-23T09:42:54.354Z,1.90
2023-04-23T09:45:22.826Z,2.40
2023-04-23T09:47:55.847Z,2.10
2023-04-23T09:50:40.323Z,2.30
2023-04-23T09:53:09.312Z,2.30
2023-04-23T09:55:39.486Z,2.10
2023-04-23T09:58:11.445Z,2.00
2023-04-23T10:00:40.253Z,2.10
2023-04-23T10:03:09.087Z,2.40
2023-04-23T10:08:16.129Z,2.60
2023-04-23T10:10:57.406Z,2.50
2023-04-23T10:13:28.813Z,2.50
2023-04-23T10:16:07.099Z,2.40
2023-04-23T10:18:42.231Z,2.60
2023-04-23T10:21:12.259Z,2.30
2023-04-23T10:23:40.341Z,2.60
2023-04-23T10:26:09.696Z,3.20
2023-04-23T10:28:37.734Z,2.30
2023-04-23T10:31:05.821Z,2.20
2023-04-23T10:33:42.671Z,2.30
2023-04-23T10:36:17.721Z,2.40
2023-04-23T10:38:57.160Z,2.30
2023-04-23T10:41:28.167Z,2.50
2023-04-23T10:43:56.501Z,2.60
2023-04-23T10:46:31.868Z,3.00
2023-04-23T10:49:16.716Z,2.50
2023-04-23T10:54:20.256Z,2.80
2023-04-23T10:56:49.412Z,2.40
2023-04-23T10:59:20.797Z,2.60
2023-04-23T11:01:49.612Z,2.50
2023-04-23T11:04:28.918Z,2.60
2023-04-23T11:07:05.408Z,2.00
2023-04-23T11:09:49.167Z,2.30
2023-04-23T11:12:30.492Z,2.30
2023-04-23T11:15:01.466Z,2.10
2023-04-23T11:17:32.669Z,2.00
2023-04-23T11:20:14.412Z,2.00
2023-04-23T11:22:44.156Z,1.90
2023-04-23T11:25:13.029Z,2.00
2023-04-23T11:27:44.847Z,2.20
2023-04-23T11:30:14.555Z,2.20
2023-04-23T11:32:42.597Z,1.90
2023-04-23T11:35:13.618Z,2.20
2023-04-23T11:37:42.579Z,2.40
2023-04-23T11:40:11.685Z,2.40
2023-04-23T11:42:53.712Z,2.20
2023-04-23T11:45:25.733Z,2.70
2023-04-23T11:47:57.372Z,2.70
2023-04-23T11:52:54.044Z,2.40
2023-04-23T11:55:22.367Z,2.60
2023-04-23T11:57:51.008Z,2.30
2023-04-23T12:00:22.782Z,2.50
2023-04-23T12:03:01.222Z,2.50
2023-04-23T12:05:29.261Z,2.40
2023-04-23T12:08:10.852Z,2.60
2023-04-23T12:11:02.174Z,2.30
2023-04-23T12:13:33.807Z,2.30
2023-04-23T12:16:04.066Z,2.30
2023-04-23T12:18:42.681Z,2.10
2023-04-23T12:21:13.698Z,2.50
2023-04-23T12:23:42.136Z,2.30
2023-04-23T12:26:13.867Z,2.20
2023-04-23T12:28:51.550Z,2.20
2023-04-23T12:31:23.552Z,2.30
2023-04-23T12:34:06.859Z,2.20
2023-04-23T12:36:39.939Z,2.10
2023-04-23T12:39:29.509Z,2.30
2023-04-23T12:42:00.330Z,2.00
2023-04-23T12:44:28.597Z,2.20
2023-04-23T12:47:00.695Z,2.30
2023-04-23T12:49:29.554Z,2.10
2023-04-23T12:51:57.940Z,2.20
2023-04-23T12:54:31.688Z,2.00
2023-04-23T12:57:02.124Z,2.30
2023-04-23T12:59:30.770Z,1.80
2023-04-23T13:02:02.427Z,2.00
2023-04-23T13:04:35.534Z,2.00
2023-04-23T13:07:03.876Z,2.30
2023-04-23T13:09:32.262Z,1.90
2023-04-23T13:12:01.106Z,2.00
2023-04-23T13:14:29.421Z,1.80
2023-04-23T13:17:00.822Z,1.80
2023-04-23T13:19:29.225Z,1.90
2023-04-23T13:21:57.392Z,1.90
2023-04-23T13:24:26.970Z,1.80
2023-04-23T13:26:55.608Z,1.80
2023-04-23T13:29:27.551Z,1.90
2023-04-23T13:31:56.070Z,2.00
2023-04-23T13:34:24.370Z,1.80
2023-04-23T13:36:52.332Z,1.90
2023-04-23T13:39:20.641Z,2.20
2023-04-23T13:41:59.050Z,2.30
2023-04-23T13:44:34.447Z,2.30
2023-04-23T13:47:02.796Z,2.10
2023-04-23T13:49:30.785Z,2.60
2023-04-23T13:52:01.215Z,2.20
2023-04-23T13:54:29.504Z,2.50
2023-04-23T13:56:57.378Z,2.30
2023-04-23T13:59:25.591Z,2.60
2023-04-23T14:01:53.385Z,2.50
2023-04-23T14:04:24.271Z,2.70
2023-04-23T14:06:53.032Z,2.00
2023-04-23T14:09:23.183Z,2.30
2023-04-23T14:11:51.209Z,2.10
2023-04-23T14:14:18.969Z,2.40
2023-04-23T14:16:46.911Z,2.70
2023-04-23T14:19:15.077Z,2.30
2023-04-23T14:21:42.965Z,2.10
2023-04-23T14:24:24.876Z,2.30
2023-04-23T14:29:32.145Z,2.30
2023-04-23T14:31:59.965Z,2.20
2023-04-23T14:34:28.290Z,2.20
2023-04-23T14:36:56.939Z,2.40
2023-04-23T14:39:26.406Z,2.60
2023-04-23T14:41:54.788Z,2.80
2023-04-23T14:44:27.189Z,2.20
2023-04-23T14:46:57.795Z,2.40
2023-04-23T14:49:26.330Z,2.50
2023-04-23T14:51:55.714Z,2.30
2023-04-23T14:54:25.081Z,2.50
2023-04-23T14:56:55.206Z,2.70
2023-04-23T14:59:24.384Z,2.80
2023-04-23T15:01:53.708Z,2.10
2023-04-23T15:04:22.530Z,2.40
2023-04-23T15:06:51.951Z,2.40
2023-04-23T15:09:20.770Z,2.50
2023-04-23T15:11:49.885Z,2.20
2023-04-23T15:14:32.073Z,2.10
2023-04-23T15:17:01.517Z,2.00
2023-04-23T15:19:33.310Z,1.80
2023-04-23T15:24:32.363Z,1.60
2023-04-23T15:27:01.310Z,1.50
2023-04-23T15:29:31.195Z,1.80
2023-04-23T15:32:01.079Z,2.00
2023-04-23T15:34:31.404Z,1.90
2023-04-23T15:37:01.002Z,2.10
2023-04-23T15:42:18.536Z,2.20
2023-04-23T15:51:02.150Z,2.40
2023-04-23T15:53:31.005Z,2.00
2023-04-23T15:55:59.911Z,2.50
2023-04-23T15:58:28.560Z,2.50
2023-04-23T16:00:57.040Z,2.40
2023-04-23T16:03:26.908Z,2.30
2023-04-23T16:05:55.119Z,2.40
2023-04-23T16:08:22.888Z,2.30
2023-04-23T16:10:51.540Z,2.60
2023-04-23T16:21:20.416Z,2.60
2023-04-23T16:23:49.658Z,2.00
2023-04-23T16:26:21.772Z,2.30
2023-04-23T16:28:56.330Z,2.40
2023-04-23T16:31:29.285Z,2.20
2023-04-23T16:33:58.227Z,2.10
2023-04-23T16:36:26.420Z,2.30
2023-04-23T16:38:54.721Z,2.40
2023-04-23T16:41:22.934Z,2.40
